createdAt,value
2019-04-16T00:01:03.635Z,85.60
2019-04-16T00:03:33.278Z,85.20
2019-04-16T00:06:04.359Z,89.30
2019-04-16T00:08:35.438Z,89.80
2019-04-16T00:11:09.668Z,88.70
2019-04-16T00:13:57.207Z,88.80
2019-04-16T00:16:26.698Z,88.60
2019-04-16T00:18:57.860Z,87.60
2019-04-16T00:21:31.674Z,87.90
2019-04-16T00:24:18.155Z,88.10
2019-04-16T00:26:46.746Z,88.10
2019-04-16T00:29:16.203Z,86.60
2019-04-16T00:31:47.294Z,88.80
2019-04-16T00:34:16.752Z,86.40
2019-04-16T00:36:48.663Z,87.70
2019-04-16T00:39:17.380Z,86.20
2019-04-16T00:41:46.859Z,83.70
2019-04-16T00:44:16.376Z,88.10
2019-04-16T00:46:45.876Z,88.70
2019-04-16T00:49:15.605Z,86.30
2019-04-16T00:51:45.496Z,85.70
2019-04-16T00:54:14.947Z,88.70
2019-04-16T00:56:46.752Z,89.80
2019-04-16T00:59:15.594Z,88.70
2019-04-16T01:01:45.114Z,86.70
2019-04-16T01:04:14.602Z,89.70
2019-04-16T01:06:44.047Z,89.10
2019-04-16T01:09:13.497Z,88.70
2019-04-16T01:11:42.973Z,89.00
2019-04-16T01:14:12.426Z,87.00
2019-04-16T01:16:41.862Z,84.60
2019-04-16T01:19:11.354Z,87.20
2019-04-16T01:21:44.427Z,85.70
2019-04-16T01:24:12.025Z,86.90
2019-04-16T01:26:41.486Z,89.10
2019-04-16T01:29:17.211Z,88.40
2019-04-16T01:31:54.069Z,89.30
2019-04-16T01:34:37.021Z,87.40
2019-04-16T01:37:25.792Z,88.10
2019-04-16T01:39:58.917Z,88.40
2019-04-16T01:42:28.467Z,88.20
2019-04-16T01:44:59.924Z,90.70
2019-04-16T01:47:29.124Z,90.50
2019-04-16T01:49:58.591Z,91.50
2019-04-16T01:52:28.046Z,87.50
2019-04-16T01:54:57.501Z,90.30
2019-04-16T01:57:28.346Z,91.30
2019-04-16T01:59:58.153Z,90.80
2019-04-16T02:02:27.670Z,91.20
2019-04-16T02:04:57.153Z,90.70
2019-04-16T02:07:27.972Z,89.70
2019-04-16T02:09:57.754Z,90.40
2019-04-16T02:12:27.279Z,85.90
2019-04-16T02:14:56.715Z,87.90
2019-04-16T02:17:26.970Z,91.70
2019-04-16T02:19:57.308Z,91.10
2019-04-16T02:22:26.759Z,90.80
2019-04-16T02:24:56.233Z,90.70
2019-04-16T02:27:26.233Z,91.20
2019-04-16T02:29:58.588Z,91.40
2019-04-16T02:32:27.771Z,91.60
2019-04-16T02:34:57.272Z,90.20
2019-04-16T02:37:26.734Z,90.70
2019-04-16T02:39:56.153Z,90.50
2019-04-16T02:42:30.754Z,90.90
2019-04-16T02:44:56.782Z,90.70
2019-04-16T02:47:26.306Z,90.90
2019-04-16T02:49:57.755Z,91.20
2019-04-16T02:52:31.580Z,91.00
2019-04-16T02:55:19.147Z,91.50
2019-04-16T02:58:05.536Z,91.40
2019-04-16T03:00:52.694Z,91.20
2019-04-16T03:03:26.772Z,92.20
2019-04-16T03:06:00.673Z,90.40
2019-04-16T03:08:28.534Z,91.00
2019-04-16T03:10:58.772Z,91.70
2019-04-16T03:13:28.775Z,90.90
2019-04-16T03:16:06.350Z,90.20
2019-04-16T03:18:38.776Z,90.50
2019-04-16T03:21:08.227Z,90.40
2019-04-16T03:23:37.862Z,93.00
2019-04-16T03:26:07.442Z,91.30
2019-04-16T03:28:36.889Z,91.40
2019-04-16T03:31:08.740Z,92.30
2019-04-16T03:33:37.543Z,91.50
2019-04-16T03:36:06.993Z,92.50
2019-04-16T03:38:38.709Z,92.00
2019-04-16T03:41:07.743Z,91.80
2019-04-16T03:43:37.195Z,91.70
2019-04-16T03:46:06.673Z,91.50
2019-04-16T03:48:37.878Z,90.80
2019-04-16T03:51:07.316Z,92.00
2019-04-16T03:53:36.772Z,91.30
2019-04-16T03:56:06.251Z,91.60
2019-04-16T03:58:38.525Z,90.80
2019-04-16T04:01:07.023Z,91.70
2019-04-16T04:03:36.535Z,91.50
2019-04-16T04:06:06.857Z,91.40
2019-04-16T04:08:37.225Z,89.20
2019-04-16T04:11:10.158Z,90.10
2019-04-16T04:13:37.886Z,91.10
2019-04-16T04:16:07.393Z,91.80
2019-04-16T04:18:36.939Z,91.50
2019-04-16T04:21:06.387Z,91.40
2019-04-16T04:23:35.848Z,91.00
2019-04-16T04:26:08.300Z,91.20
2019-04-16T04:28:36.572Z,91.20
2019-04-16T04:31:06.019Z,91.00
2019-04-16T04:33:41.597Z,91.40
2019-04-16T04:36:10.708Z,91.30
2019-04-16T04:38:40.897Z,91.00
2019-04-16T04:41:10.535Z,89.10
2019-04-16T04:43:40.043Z,86.80
2019-04-16T04:46:13.508Z,89.50
2019-04-16T04:48:40.696Z,92.00
2019-04-16T04:51:10.163Z,90.90
2019-04-16T04:53:39.680Z,90.90
2019-04-16T04:56:09.636Z,90.10
2019-04-16T04:58:39.101Z,90.40
2019-04-16T05:01:09.531Z,89.40
2019-04-16T05:04:02.040Z,90.70
2019-04-16T05:06:32.106Z,89.00
2019-04-16T05:09:01.557Z,90.90
2019-04-16T05:11:31.026Z,89.60
2019-04-16T05:14:00.482Z,88.90
2019-04-16T05:16:31.536Z,91.10
2019-04-16T05:19:01.177Z,91.70
2019-04-16T05:21:30.724Z,92.10
2019-04-16T05:24:00.235Z,92.70
2019-04-16T05:26:29.726Z,92.60
2019-04-16T05:29:00.807Z,94.30
2019-04-16T05:31:31.219Z,93.90
2019-04-16T05:34:02.429Z,93.10
2019-04-16T05:36:32.043Z,91.80
2019-04-16T05:39:03.655Z,93.80
2019-04-16T05:41:32.682Z,93.20
2019-04-16T05:44:02.199Z,93.00
2019-04-16T05:46:31.645Z,90.30
2019-04-16T05:49:01.124Z,93.70
2019-04-16T05:51:31.468Z,93.50
2019-04-16T05:54:03.230Z,94.00
2019-04-16T05:56:37.151Z,92.60
2019-04-16T05:59:06.607Z,93.10
2019-04-16T06:01:46.603Z,93.40
2019-04-16T06:04:16.040Z,94.10
2019-04-16T06:06:45.485Z,93.30
2019-04-16T06:09:14.971Z,92.00
2019-04-16T06:11:44.433Z,92.90
2019-04-16T06:14:21.062Z,93.50
2019-04-16T06:17:08.544Z,90.50
2019-04-16T06:19:54.819Z,91.90
2019-04-16T06:22:30.107Z,93.20
2019-04-16T06:25:18.131Z,91.30
2019-04-16T06:27:52.079Z,92.70
2019-04-16T06:30:33.775Z,92.20
2019-04-16T06:33:11.211Z,90.00
2019-04-16T06:35:48.052Z,85.90
2019-04-16T06:38:19.208Z,92.50
2019-04-16T06:40:56.271Z,93.00
2019-04-16T06:43:27.486Z,92.90
2019-04-16T06:46:08.382Z,91.70
2019-04-16T06:48:52.227Z,90.80
2019-04-16T06:51:32.385Z,91.60
2019-04-16T06:54:06.674Z,92.20
2019-04-16T06:56:41.107Z,91.10
2019-04-16T06:59:30.729Z,92.70
2019-04-16T07:02:02.075Z,88.00
2019-04-16T07:04:49.289Z,90.60
2019-04-16T07:07:40.302Z,91.70
2019-04-16T07:10:11.505Z,88.30
2019-04-16T07:12:41.049Z,90.00
2019-04-16T07:15:11.632Z,82.50
2019-04-16T07:17:41.082Z,81.30
2019-04-16T07:20:13.450Z,80.80
2019-04-16T07:22:42.248Z,79.80
2019-04-16T07:25:11.766Z,83.60
2019-04-16T07:27:58.955Z,81.50
2019-04-16T07:30:39.961Z,79.50
2019-04-16T07:33:27.219Z,78.40
2019-04-16T07:36:04.655Z,80.00
2019-04-16T07:38:36.075Z,75.20
2019-04-16T07:41:12.963Z,76.80
2019-04-16T07:44:08.118Z,72.80
2019-04-16T07:46:35.480Z,72.90
2019-04-16T07:49:26.523Z,74.30
2019-04-16T07:52:00.599Z,73.00
2019-04-16T07:54:31.713Z,74.80
2019-04-16T07:57:01.180Z,70.50
2019-04-16T07:59:32.232Z,72.30
2019-04-16T08:02:01.865Z,73.90
2019-04-16T08:04:35.251Z,75.10
2019-04-16T08:07:02.531Z,70.70
2019-04-16T08:09:33.692Z,70.00
2019-04-16T08:12:03.514Z,74.00
2019-04-16T08:14:33.041Z,80.80
2019-04-16T08:17:02.622Z,80.70
2019-04-16T08:19:37.189Z,68.30
2019-04-16T08:22:03.458Z,68.90
2019-04-16T08:24:40.200Z,73.20
2019-04-16T08:27:10.821Z,73.20
2019-04-16T08:29:40.398Z,73.70
2019-04-16T08:32:12.761Z,71.50
2019-04-16T08:34:41.050Z,67.90
2019-04-16T08:37:10.532Z,65.70
2019-04-16T08:39:40.563Z,71.90
2019-04-16T08:42:10.074Z,70.00
2019-04-16T08:44:39.544Z,64.80
2019-04-16T08:47:12.128Z,63.70
2019-04-16T08:49:40.408Z,75.10
2019-04-16T08:52:10.979Z,65.50
2019-04-16T08:54:40.597Z,62.10
2019-04-16T08:57:10.073Z,62.40
2019-04-16T08:59:42.604Z,62.80
2019-04-16T09:02:10.792Z,62.70
2019-04-16T09:04:40.262Z,64.30
2019-04-16T09:07:13.139Z,65.30
2019-04-16T09:09:44.181Z,69.10
2019-04-16T09:12:13.862Z,66.90
2019-04-16T09:14:45.179Z,60.30
2019-04-16T09:17:19.149Z,62.00
2019-04-16T09:19:52.901Z,61.00
2019-04-16T09:22:22.349Z,67.50
2019-04-16T09:25:13.609Z,62.30
2019-04-16T09:27:42.501Z,64.20
2019-04-16T09:30:30.467Z,59.20
2019-04-16T09:33:07.102Z,65.90
2019-04-16T09:35:47.363Z,66.10
2019-04-16T09:38:21.019Z,68.10
2019-04-16T09:41:08.058Z,68.00
2019-04-16T09:43:40.383Z,72.90
2019-04-16T09:46:12.933Z,59.40
2019-04-16T09:48:41.187Z,62.10
2019-04-16T09:51:10.643Z,67.60
2019-04-16T09:53:40.948Z,59.30
2019-04-16T09:56:30.611Z,65.10
2019-04-16T09:59:07.459Z,61.00
2019-04-16T10:01:38.955Z,61.40
2019-04-16T10:04:10.047Z,67.90
2019-04-16T10:06:39.473Z,60.80
2019-04-16T10:09:09.157Z,63.50
2019-04-16T10:11:38.589Z,65.00
2019-04-16T10:14:08.205Z,58.40
2019-04-16T10:16:37.869Z,58.20
2019-04-16T10:19:08.438Z,62.40
2019-04-16T10:21:40.253Z,62.10
2019-04-16T10:24:20.043Z,62.80
2019-04-16T10:26:51.172Z,59.80
2019-04-16T10:29:22.450Z,60.90
2019-04-16T10:31:52.707Z,58.00
2019-04-16T10:34:22.360Z,59.70
2019-04-16T10:36:51.964Z,60.90
2019-04-16T10:39:35.014Z,62.60
2019-04-16T10:42:22.256Z,58.10
2019-04-16T10:44:56.342Z,57.00
2019-04-16T10:47:27.792Z,55.60
2019-04-16T10:50:07.765Z,57.90
2019-04-16T10:52:56.184Z,58.00
2019-04-16T10:55:39.820Z,60.50
2019-04-16T10:58:26.926Z,57.70
2019-04-16T11:01:06.991Z,57.30
2019-04-16T11:03:56.307Z,59.40
2019-04-16T11:06:30.268Z,59.70
2019-04-16T11:08:59.770Z,57.10
2019-04-16T11:11:29.288Z,58.30
2019-04-16T11:14:00.444Z,59.70
2019-04-16T11:16:29.942Z,58.30
2019-04-16T11:18:59.389Z,59.60
2019-04-16T11:21:28.874Z,55.70
2019-04-16T11:23:58.297Z,57.80
2019-04-16T11:26:27.827Z,59.30
2019-04-16T11:28:57.321Z,57.40
2019-04-16T11:31:27.304Z,58.20
2019-04-16T11:33:56.779Z,56.60
2019-04-16T11:36:30.542Z,54.30
2019-04-16T11:38:57.620Z,57.00
2019-04-16T11:41:27.073Z,55.60
2019-04-16T11:43:56.543Z,57.00
2019-04-16T11:46:26.079Z,56.10
2019-04-16T11:48:55.540Z,60.70
2019-04-16T11:51:24.964Z,53.30
2019-04-16T11:53:54.421Z,53.70
2019-04-16T11:56:23.905Z,54.00
2019-04-16T11:58:54.514Z,54.10
2019-04-16T12:01:29.318Z,54.20
2019-04-16T12:04:15.238Z,54.80
2019-04-16T12:07:05.095Z,56.70
2019-04-16T12:09:34.212Z,54.70
2019-04-16T12:12:14.108Z,55.80
2019-04-16T12:14:47.951Z,55.10
2019-04-16T12:17:24.775Z,56.40
2019-04-16T12:20:11.412Z,57.30
2019-04-16T12:22:45.905Z,56.60
2019-04-16T12:25:20.927Z,56.10
2019-04-16T12:27:52.049Z,59.20
2019-04-16T12:30:23.229Z,53.60
2019-04-16T12:33:08.754Z,52.20
2019-04-16T12:35:57.358Z,52.50
2019-04-16T12:38:29.059Z,57.60
2019-04-16T12:41:00.151Z,53.40
2019-04-16T12:43:34.303Z,52.60
2019-04-16T12:46:08.886Z,51.90
2019-04-16T12:48:40.037Z,51.00
2019-04-16T12:51:11.078Z,52.10
2019-04-16T12:53:44.991Z,51.60
2019-04-16T12:56:32.670Z,51.70
2019-04-16T12:59:04.026Z,58.60
2019-04-16T13:01:47.144Z,51.10
2019-04-16T13:04:18.266Z,51.70
2019-04-16T13:07:05.768Z,50.80
2019-04-16T13:09:39.637Z,52.20
2019-04-16T13:12:27.093Z,50.00
2019-04-16T13:15:16.415Z,51.50
2019-04-16T13:17:59.419Z,50.70
2019-04-16T13:20:33.557Z,52.60
2019-04-16T13:23:21.105Z,55.00
2019-04-16T13:25:52.195Z,52.50
2019-04-16T13:31:09.061Z,50.10
2019-04-16T13:33:40.114Z,53.10
2019-04-16T13:36:09.686Z,51.20
2019-04-16T13:38:43.827Z,52.00
2019-04-16T13:41:13.435Z,50.50
2019-04-16T13:43:56.680Z,51.40
2019-04-16T13:46:29.284Z,50.70
2019-04-16T13:49:01.589Z,52.40
2019-04-16T13:51:32.110Z,56.40
2019-04-16T13:54:09.204Z,50.90
2019-04-16T13:56:40.357Z,49.10
2019-04-16T13:59:17.330Z,49.10
2019-04-16T14:01:54.411Z,48.80
2019-04-16T14:04:24.022Z,50.70
2019-04-16T14:06:53.613Z,53.00
2019-04-16T14:09:23.221Z,54.60
2019-04-16T14:11:52.826Z,53.40
2019-04-16T14:14:23.984Z,52.70
2019-04-16T14:16:53.576Z,51.80
2019-04-16T14:19:23.180Z,50.80
2019-04-16T14:21:52.703Z,49.20
2019-04-16T14:24:22.294Z,46.90
2019-04-16T14:26:51.902Z,49.00
2019-04-16T14:29:24.761Z,47.70
2019-04-16T14:31:52.589Z,48.40
2019-04-16T14:34:23.722Z,48.40
2019-04-16T14:36:56.782Z,48.70
2019-04-16T14:39:31.882Z,47.70
2019-04-16T14:42:01.412Z,47.00
2019-04-16T14:44:38.630Z,47.20
2019-04-16T14:47:08.149Z,48.00
2019-04-16T14:49:37.620Z,47.90
2019-04-16T14:52:07.336Z,46.30
2019-04-16T14:54:54.582Z,47.80
2019-04-16T14:57:24.145Z,48.10
2019-04-16T14:59:58.172Z,48.70
2019-04-16T15:02:31.967Z,47.70
2019-04-16T15:05:03.327Z,47.70
2019-04-16T15:07:34.648Z,48.00
2019-04-16T15:10:23.967Z,48.30
2019-04-16T15:12:57.528Z,48.00
2019-04-16T15:15:34.715Z,48.10
2019-04-16T15:18:18.126Z,47.90
2019-04-16T15:20:55.980Z,46.60
2019-04-16T15:23:43.050Z,45.90
2019-04-16T15:26:29.492Z,46.00
2019-04-16T15:29:00.704Z,45.90
2019-04-16T15:31:49.995Z,47.40
2019-04-16T15:34:24.240Z,46.70
2019-04-16T15:37:11.896Z,49.50
2019-04-16T15:39:45.688Z,46.20
2019-04-16T15:42:25.479Z,45.90
2019-04-16T15:44:59.735Z,46.30
2019-04-16T15:47:32.358Z,47.30
2019-04-16T15:50:06.482Z,46.00
2019-04-16T15:52:56.972Z,45.20
2019-04-16T15:55:30.981Z,44.80
2019-04-16T15:58:20.480Z,44.70
2019-04-16T16:00:54.958Z,45.00
2019-04-16T16:03:29.089Z,46.50
2019-04-16T16:06:00.202Z,46.70
2019-04-16T16:08:35.834Z,47.30
2019-04-16T16:11:18.925Z,45.90
2019-04-16T16:13:48.424Z,45.70
2019-04-16T16:16:18.963Z,45.80
2019-04-16T16:18:50.098Z,45.40
2019-04-16T16:21:21.343Z,46.10
2019-04-16T16:23:50.820Z,47.50
2019-04-16T16:26:20.280Z,46.30
2019-04-16T16:28:49.843Z,44.90
2019-04-16T16:31:19.330Z,45.30
2019-04-16T16:33:48.844Z,45.90
2019-04-16T16:36:18.337Z,46.30
2019-04-16T16:38:49.251Z,46.70
2019-04-16T16:41:18.808Z,45.70
2019-04-16T16:43:48.298Z,45.80
2019-04-16T16:46:22.031Z,47.20
2019-04-16T16:48:53.219Z,45.60
2019-04-16T16:51:23.223Z,47.00
2019-04-16T16:54:10.701Z,46.30
2019-04-16T16:56:44.510Z,46.00
2019-04-16T16:59:27.545Z,45.70
2019-04-16T17:02:14.809Z,46.40
2019-04-16T17:04:45.983Z,46.40
2019-04-16T17:07:17.674Z,47.10
2019-04-16T17:09:46.831Z,46.70
2019-04-16T17:12:16.337Z,47.20
2019-04-16T17:14:45.791Z,45.60
2019-04-16T17:17:15.423Z,46.80
2019-04-16T17:19:45.047Z,46.70
2019-04-16T17:22:17.411Z,47.00
2019-04-16T17:24:46.075Z,47.30
2019-04-16T17:27:15.614Z,46.90
2019-04-16T17:29:46.670Z,47.80
2019-04-16T17:32:16.353Z,47.70
2019-04-16T17:34:45.836Z,49.00
2019-04-16T17:37:15.441Z,49.00
2019-04-16T17:39:46.591Z,48.80
2019-04-16T17:42:17.702Z,49.30
2019-04-16T17:44:55.043Z,49.30
2019-04-16T17:47:32.636Z,49.00
2019-04-16T17:50:04.964Z,48.80
2019-04-16T17:52:36.181Z,49.90
2019-04-16T17:55:16.893Z,49.20
2019-04-16T17:58:00.052Z,49.90
2019-04-16T18:00:43.061Z,49.90
2019-04-16T18:03:16.647Z,51.00
2019-04-16T18:05:53.456Z,50.80
2019-04-16T18:08:40.720Z,51.30
2019-04-16T18:11:11.832Z,51.90
2019-04-16T18:13:58.220Z,52.20
2019-04-16T18:16:29.605Z,52.70
2019-04-16T18:19:15.920Z,53.10
2019-04-16T18:21:50.138Z,52.60
2019-04-16T18:24:21.303Z,53.70
2019-04-16T18:27:01.348Z,53.50
2019-04-16T18:29:44.589Z,52.50
2019-04-16T18:32:23.002Z,53.10
2019-04-16T18:34:54.142Z,53.20
2019-04-16T18:37:37.179Z,54.80
2019-04-16T18:40:18.703Z,55.40
2019-04-16T18:43:05.831Z,54.50
2019-04-16T18:45:55.830Z,54.40
2019-04-16T18:48:34.996Z,54.70
2019-04-16T18:51:04.606Z,55.10
2019-04-16T18:53:34.081Z,55.40
2019-04-16T18:56:03.573Z,55.80
2019-04-16T18:58:33.070Z,55.70
2019-04-16T19:01:04.185Z,55.80
2019-04-16T19:03:33.791Z,55.60
2019-04-16T19:06:03.436Z,56.70
2019-04-16T19:08:41.554Z,55.70
2019-04-16T19:11:04.834Z,55.50
2019-04-16T19:13:34.436Z,55.80
2019-04-16T19:16:05.550Z,56.70
2019-04-16T19:18:35.019Z,56.60
2019-04-16T19:21:04.524Z,56.80
2019-04-16T19:23:33.995Z,56.00
2019-04-16T19:26:05.540Z,55.90
2019-04-16T19:28:36.263Z,56.60
2019-04-16T19:31:06.370Z,56.90
2019-04-16T19:33:38.356Z,56.20
2019-04-16T19:36:07.159Z,57.20
2019-04-16T19:38:39.402Z,56.30
2019-04-16T19:41:07.837Z,57.60
2019-04-16T19:43:37.384Z,57.10
2019-04-16T19:46:06.851Z,57.20
2019-04-16T19:48:36.514Z,56.70
2019-04-16T19:51:07.206Z,58.70
2019-04-16T19:53:37.197Z,57.50
2019-04-16T19:56:06.742Z,58.80
2019-04-16T19:58:36.212Z,58.20
2019-04-16T20:01:06.184Z,57.70
2019-04-16T20:03:35.745Z,59.00
2019-04-16T20:06:05.855Z,59.30
2019-04-16T20:08:39.902Z,59.40
2019-04-16T20:11:06.774Z,59.50
2019-04-16T20:13:38.352Z,59.30
2019-04-16T20:16:07.878Z,59.30
2019-04-16T20:18:50.955Z,58.20
2019-04-16T20:21:10.853Z,59.30
2019-04-16T20:23:41.646Z,59.50
2019-04-16T20:26:11.164Z,59.50
2019-04-16T20:28:40.650Z,60.00
2019-04-16T20:31:11.688Z,60.50
2019-04-16T20:33:41.182Z,60.30
2019-04-16T20:36:10.658Z,60.70
2019-04-16T20:38:40.134Z,60.10
2019-04-16T20:41:10.025Z,60.80
2019-04-16T20:43:39.507Z,60.50
2019-04-16T20:46:08.979Z,60.60
2019-04-16T20:48:38.485Z,61.10
2019-04-16T20:51:08.553Z,61.90
2019-04-16T20:53:40.797Z,62.50
2019-04-16T20:56:10.694Z,63.30
2019-04-16T20:58:40.411Z,63.40
2019-04-16T21:01:09.924Z,62.20
2019-04-16T21:03:39.384Z,63.60
2019-04-16T21:06:09.625Z,63.90
2019-04-16T21:08:39.341Z,62.00
2019-04-16T21:11:09.709Z,63.50
2019-04-16T21:13:39.326Z,64.80
2019-04-16T21:16:08.773Z,63.60
2019-04-16T21:18:38.248Z,64.10
2019-04-16T21:21:07.957Z,64.10
2019-04-16T21:23:37.400Z,64.90
2019-04-16T21:26:06.874Z,65.30
2019-04-16T21:28:49.961Z,65.50
2019-04-16T21:31:27.074Z,65.50
2019-04-16T21:34:16.643Z,65.50
2019-04-16T21:36:50.703Z,66.40
2019-04-16T21:39:24.369Z,64.00
2019-04-16T21:41:53.823Z,63.70
2019-04-16T21:44:24.879Z,66.20
2019-04-16T21:46:57.582Z,65.60
2019-04-16T21:49:37.700Z,66.50
2019-04-16T21:52:08.461Z,64.50
2019-04-16T21:54:39.421Z,65.50
2019-04-16T21:57:13.153Z,66.10
2019-04-16T21:59:40.127Z,66.90
2019-04-16T22:02:15.152Z,66.30
2019-04-16T22:04:45.424Z,68.00
2019-04-16T22:07:15.542Z,68.20
2019-04-16T22:09:44.989Z,68.70
2019-04-16T22:12:15.555Z,69.90
2019-04-16T22:14:46.001Z,68.60
2019-04-16T22:17:15.449Z,69.40
2019-04-16T22:19:53.899Z,71.40
2019-04-16T22:22:16.120Z,69.80
2019-04-16T22:24:45.559Z,70.90
2019-04-16T22:27:15.039Z,70.70
2019-04-16T22:29:47.319Z,70.90
2019-04-16T22:32:15.657Z,70.60
2019-04-16T22:34:45.130Z,71.10
2019-04-16T22:37:14.589Z,71.10
2019-04-16T22:39:56.211Z,72.20
2019-04-16T22:42:29.616Z,72.20
2019-04-16T22:45:16.794Z,71.90
2019-04-16T22:47:52.620Z,72.20
2019-04-16T22:50:22.077Z,72.30
2019-04-16T22:52:51.589Z,72.70
2019-04-16T22:55:24.405Z,72.70
2019-04-16T22:57:52.232Z,74.00
2019-04-16T23:00:23.416Z,73.40
2019-04-16T23:02:53.868Z,74.70
2019-04-16T23:05:23.330Z,74.30
2019-04-16T23:07:52.821Z,75.30
2019-04-16T23:10:22.256Z,75.20
2019-04-16T23:12:51.736Z,77.20
2019-04-16T23:15:21.172Z,75.80
2019-04-16T23:17:50.640Z,75.80
2019-04-16T23:20:29.068Z,77.90
2019-04-16T23:22:51.283Z,77.00
2019-04-16T23:25:20.744Z,76.40
2019-04-16T23:27:50.186Z,77.30
2019-04-16T23:30:19.651Z,77.10
2019-04-16T23:32:49.126Z,78.90
2019-04-16T23:35:18.604Z,77.50
2019-04-16T23:37:48.045Z,77.30
2019-04-16T23:40:17.529Z,77.50
2019-04-16T23:42:54.768Z,78.70
2019-04-16T23:45:31.419Z,79.00
2019-04-16T23:48:14.702Z,77.20
2019-04-16T23:50:45.342Z,77.50
2019-04-16T23:53:16.071Z,76.60
2019-04-16T23:55:48.790Z,77.00
2019-04-16T23:58:28.165Z,78.30
